createdAt,value
2022-11-05T00:02:23.455Z,73.66
2022-11-05T00:05:08.806Z,73.78
2022-11-05T00:08:02.362Z,73.73
2022-11-05T00:10:31.342Z,73.60
2022-11-05T00:13:18.151Z,73.58
2022-11-05T00:16:03.941Z,73.79
2022-11-05T00:18:31.049Z,73.85
2022-11-05T00:20:57.652Z,73.64
2022-11-05T00:23:43.000Z,73.75
2022-11-05T00:26:11.474Z,73.54
2022-11-05T00:28:41.521Z,73.37
2022-11-05T00:31:10.783Z,73.79
2022-11-05T00:33:38.749Z,73.71
2022-11-05T00:36:07.487Z,73.64
2022-11-05T00:38:34.456Z,73.87
2022-11-05T00:41:01.158Z,73.85
2022-11-05T00:43:46.461Z,73.95
2022-11-05T00:46:13.258Z,73.75
2022-11-05T00:48:58.650Z,73.75
2022-11-05T00:51:25.289Z,73.94
2022-11-05T00:53:51.970Z,73.93
2022-11-05T00:56:18.631Z,73.83
2022-11-05T00:58:45.447Z,73.53
2022-11-05T01:01:12.279Z,73.88
2022-11-05T01:03:39.587Z,73.45
2022-11-05T01:06:15.363Z,73.56
2022-11-05T01:08:44.832Z,73.63
2022-11-05T01:11:36.869Z,73.91
2022-11-05T01:14:07.564Z,73.84
2022-11-05T01:16:34.546Z,73.55
2022-11-05T01:19:02.140Z,74.03
2022-11-05T01:21:28.915Z,73.77
2022-11-05T01:23:55.581Z,73.70
2022-11-05T01:26:22.719Z,73.37
2022-11-05T01:28:56.568Z,73.58
2022-11-05T01:31:23.864Z,73.27
2022-11-05T01:33:51.041Z,73.65
2022-11-05T01:36:17.919Z,73.12
2022-11-05T01:38:44.710Z,73.39
2022-11-05T01:41:11.583Z,72.65
2022-11-05T01:43:59.136Z,73.10
2022-11-05T01:46:31.672Z,72.91
2022-11-05T01:49:06.693Z,72.95
2022-11-05T01:51:33.357Z,72.94
2022-11-05T01:54:04.638Z,73.40
2022-11-05T01:56:39.152Z,73.88
2022-11-05T01:59:09.313Z,73.56
2022-11-05T02:01:36.316Z,73.58
2022-11-05T02:04:07.246Z,73.86
2022-11-05T02:06:38.900Z,74.12
2022-11-05T02:09:24.335Z,74.19
2022-11-05T02:11:51.788Z,74.26
2022-11-05T02:14:18.760Z,74.29
2022-11-05T02:16:56.190Z,74.13
2022-11-05T02:19:42.549Z,74.28
2022-11-05T02:22:36.867Z,73.98
2022-11-05T02:25:34.374Z,74.00
2022-11-05T02:28:39.840Z,73.64
2022-11-05T02:31:28.249Z,73.51
2022-11-05T02:34:05.972Z,73.88
2022-11-05T02:36:43.958Z,73.82
2022-11-05T02:39:10.541Z,74.36
2022-11-05T02:41:46.031Z,74.33
2022-11-05T02:44:35.915Z,74.32
2022-11-05T02:47:18.130Z,73.89
2022-11-05T02:50:01.302Z,73.71
2022-11-05T02:52:51.459Z,74.01
2022-11-05T02:55:53.430Z,73.86
2022-11-05T02:58:20.039Z,73.88
2022-11-05T03:00:51.596Z,73.98
2022-11-05T03:03:18.208Z,73.42
2022-11-05T03:06:15.287Z,73.39
2022-11-05T03:09:00.158Z,72.94
2022-11-05T03:11:30.919Z,73.33
2022-11-05T03:14:35.962Z,73.31
2022-11-05T03:17:17.565Z,73.21
2022-11-05T03:19:53.642Z,73.61
2022-11-05T03:22:30.528Z,73.37
2022-11-05T03:25:10.792Z,73.27
2022-11-05T03:27:42.000Z,73.11
2022-11-05T03:30:12.726Z,73.47
2022-11-05T03:32:44.078Z,73.39
2022-11-05T03:35:25.714Z,73.17
2022-11-05T03:37:58.337Z,73.28
2022-11-05T03:40:26.150Z,73.56
2022-11-05T03:42:58.035Z,73.35
2022-11-05T03:45:34.783Z,72.84
2022-11-05T03:48:04.738Z,72.79
2022-11-05T03:50:49.188Z,73.03
2022-11-05T03:53:21.549Z,72.92
2022-11-05T03:55:54.620Z,73.23
2022-11-05T03:58:23.465Z,73.04
2022-11-05T04:00:51.021Z,73.35
2022-11-05T04:03:20.573Z,73.30
2022-11-05T04:06:07.240Z,73.24
2022-11-05T04:08:52.376Z,73.19
2022-11-05T04:11:37.796Z,72.88
2022-11-05T04:14:04.446Z,72.98
2022-11-05T04:16:49.765Z,73.01
2022-11-05T04:19:36.336Z,73.04
2022-11-05T04:22:21.607Z,73.07
2022-11-05T04:24:48.252Z,72.98
2022-11-05T04:27:14.888Z,73.52
2022-11-05T04:30:00.310Z,73.42
2022-11-05T04:32:27.308Z,73.53
2022-11-05T04:34:53.990Z,73.48
2022-11-05T04:37:20.628Z,73.49
2022-11-05T04:39:47.258Z,73.50
2022-11-05T04:42:13.916Z,73.22
2022-11-05T04:44:40.565Z,73.34
2022-11-05T04:47:07.315Z,73.37
2022-11-05T04:49:33.933Z,73.15
2022-11-05T04:52:00.545Z,73.15
2022-11-05T04:54:27.318Z,72.95
2022-11-05T04:56:53.896Z,73.07
2022-11-05T04:59:20.547Z,73.09
2022-11-05T05:01:51.614Z,73.07
2022-11-05T05:04:18.758Z,72.74
2022-11-05T05:06:45.728Z,72.53
2022-11-05T05:09:12.400Z,72.72
2022-11-05T05:11:39.061Z,72.85
2022-11-05T05:14:05.726Z,73.10
2022-11-05T05:16:32.461Z,72.98
2022-11-05T05:18:59.182Z,72.92
2022-11-05T05:21:41.587Z,72.90
2022-11-05T05:24:13.956Z,72.68
2022-11-05T05:26:43.660Z,73.09
2022-11-05T05:29:11.268Z,73.26
2022-11-05T05:31:38.709Z,73.42
2022-11-05T05:34:06.747Z,73.58
2022-11-05T05:36:33.591Z,73.32
2022-11-05T05:39:00.311Z,73.19
2022-11-05T05:41:27.375Z,72.84
2022-11-05T05:43:54.043Z,72.51
2022-11-05T05:46:20.710Z,73.12
2022-11-05T05:48:51.725Z,73.13
2022-11-05T05:51:19.329Z,72.93
2022-11-05T05:53:45.994Z,72.77
2022-11-05T05:56:15.006Z,72.92
2022-11-05T05:58:42.087Z,72.83
2022-11-05T06:01:17.247Z,74.02
2022-11-05T06:03:45.578Z,74.23
2022-11-05T06:06:14.041Z,74.23
2022-11-05T06:08:41.373Z,74.06
2022-11-05T06:11:09.078Z,74.05
2022-11-05T06:13:36.855Z,74.27
2022-11-05T06:16:08.618Z,74.31
2022-11-05T06:18:36.285Z,74.23
2022-11-05T06:21:12.135Z,73.99
2022-11-05T06:23:40.327Z,73.07
2022-11-05T06:26:12.511Z,73.07
2022-11-05T06:28:39.799Z,73.53
2022-11-05T06:31:06.450Z,73.38
2022-11-05T06:33:33.190Z,73.80
2022-11-05T06:36:02.021Z,73.56
2022-11-05T06:38:31.332Z,72.30
2022-11-05T06:40:59.411Z,72.23
2022-11-05T06:43:27.219Z,71.86
2022-11-05T06:45:54.479Z,72.49
2022-11-05T06:48:21.314Z,72.27
2022-11-05T06:50:48.059Z,72.20
2022-11-05T06:53:14.717Z,72.16
2022-11-05T06:55:41.423Z,71.93
2022-11-05T06:58:08.192Z,71.72
2022-11-05T07:00:34.907Z,71.42
2022-11-05T07:03:10.790Z,71.02
2022-11-05T07:05:42.211Z,71.61
2022-11-05T07:08:09.036Z,71.53
2022-11-05T07:10:35.692Z,71.91
2022-11-05T07:13:07.781Z,72.03
2022-11-05T07:15:36.448Z,71.40
2022-11-05T07:18:05.170Z,71.47
2022-11-05T07:20:34.148Z,70.85
2022-11-05T07:23:02.622Z,70.46
2022-11-05T07:25:31.038Z,70.17
2022-11-05T07:27:57.944Z,69.91
2022-11-05T07:30:25.023Z,69.49
2022-11-05T07:32:51.948Z,69.40
2022-11-05T07:35:18.703Z,69.08
2022-11-05T07:37:51.114Z,68.89
2022-11-05T07:40:19.367Z,68.70
2022-11-05T07:42:48.119Z,68.57
2022-11-05T07:45:15.542Z,68.21
2022-11-05T07:47:53.488Z,68.27
2022-11-05T07:50:22.384Z,67.82
2022-11-05T07:52:50.104Z,67.59
2022-11-05T07:55:18.134Z,67.42
2022-11-05T07:57:46.483Z,66.81
2022-11-05T08:00:15.984Z,66.70
2022-11-05T08:02:43.380Z,66.74
2022-11-05T08:05:10.507Z,66.11
2022-11-05T08:07:37.185Z,65.80
2022-11-05T08:10:04.396Z,64.64
2022-11-05T08:12:32.347Z,63.94
2022-11-05T08:14:59.035Z,63.10
2022-11-05T08:17:25.836Z,62.93
2022-11-05T08:19:52.572Z,62.35
2022-11-05T08:22:19.195Z,62.51
2022-11-05T08:24:45.991Z,62.31
2022-11-05T08:27:12.791Z,62.28
2022-11-05T08:29:39.432Z,62.21
2022-11-05T08:32:06.125Z,61.96
2022-11-05T08:34:32.823Z,61.58
2022-11-05T08:37:01.180Z,61.75
2022-11-05T08:39:27.937Z,61.97
2022-11-05T08:41:54.976Z,61.47
2022-11-05T08:44:21.661Z,61.83
2022-11-05T08:46:49.195Z,60.94
2022-11-05T08:49:15.876Z,60.14
2022-11-05T08:51:44.609Z,58.69
2022-11-05T08:54:11.360Z,57.52
2022-11-05T08:56:38.303Z,57.65
2022-11-05T08:59:05.304Z,58.44
2022-11-05T09:01:33.958Z,58.81
2022-11-05T09:04:00.944Z,61.12
2022-11-05T09:06:28.114Z,61.32
2022-11-05T09:08:54.966Z,61.73
2022-11-05T09:11:21.685Z,61.96
2022-11-05T09:13:48.510Z,62.20
2022-11-05T09:16:21.240Z,62.18
2022-11-05T09:18:48.886Z,62.63
2022-11-05T09:21:17.146Z,62.90
2022-11-05T09:23:44.584Z,63.09
2022-11-05T09:26:12.400Z,63.85
2022-11-05T09:28:39.525Z,64.39
2022-11-05T09:31:08.594Z,64.83
2022-11-05T09:33:37.626Z,64.39
2022-11-05T09:36:04.961Z,64.74
2022-11-05T09:38:33.072Z,64.98
2022-11-05T09:41:21.634Z,65.23
2022-11-05T09:43:53.746Z,65.35
2022-11-05T09:46:24.130Z,65.50
2022-11-05T09:49:03.272Z,65.37
2022-11-05T09:51:31.263Z,65.96
2022-11-05T09:53:59.601Z,65.90
2022-11-05T09:56:40.288Z,65.84
2022-11-05T09:59:20.216Z,66.34
2022-11-05T10:01:48.030Z,66.29
2022-11-05T10:04:19.850Z,66.26
2022-11-05T10:06:51.607Z,66.73
2022-11-05T10:09:26.652Z,66.70
2022-11-05T10:12:07.532Z,66.95
2022-11-05T10:14:40.975Z,67.18
2022-11-05T10:17:18.015Z,67.29
2022-11-05T10:19:54.164Z,67.71
2022-11-05T10:22:20.834Z,67.42
2022-11-05T10:24:50.528Z,67.21
2022-11-05T10:27:20.785Z,67.02
2022-11-05T10:29:48.287Z,68.07
2022-11-05T10:32:39.497Z,67.93
2022-11-05T10:35:11.494Z,68.05
2022-11-05T10:37:41.050Z,67.97
2022-11-05T10:40:23.144Z,67.60
2022-11-05T10:43:11.678Z,67.22
2022-11-05T10:45:59.736Z,66.85
2022-11-05T10:48:46.045Z,66.87
2022-11-05T10:51:13.485Z,66.83
2022-11-05T10:54:00.509Z,67.12
2022-11-05T10:56:38.829Z,66.63
2022-11-05T10:59:18.864Z,66.38
2022-11-05T11:01:46.518Z,66.01
2022-11-05T11:04:20.410Z,65.62
2022-11-05T11:06:53.634Z,65.22
2022-11-05T11:09:29.005Z,64.82
2022-11-05T11:11:58.504Z,64.84
2022-11-05T11:14:26.523Z,65.33
2022-11-05T11:16:57.628Z,64.95
2022-11-05T11:19:35.797Z,65.42
2022-11-05T11:22:05.449Z,65.04
2022-11-05T11:24:39.790Z,65.13
2022-11-05T11:27:10.807Z,65.35
2022-11-05T11:29:44.002Z,65.13
2022-11-05T11:32:17.998Z,65.02
2022-11-05T11:34:48.637Z,64.65
2022-11-05T11:37:21.639Z,64.56
2022-11-05T11:39:57.688Z,64.33
2022-11-05T11:42:28.109Z,64.15
2022-11-05T11:44:56.341Z,64.07
2022-11-05T11:47:23.120Z,64.27
2022-11-05T11:50:00.804Z,64.49
2022-11-05T11:52:33.071Z,64.40
2022-11-05T11:55:11.882Z,64.65
2022-11-05T11:58:06.556Z,64.59
2022-11-05T12:00:46.279Z,64.37
2022-11-05T12:03:35.625Z,64.30
2022-11-05T12:06:31.860Z,64.55
2022-11-05T12:09:15.273Z,64.56
2022-11-05T12:11:49.039Z,64.20
2022-11-05T12:14:34.462Z,64.12
2022-11-05T12:17:07.275Z,63.84
2022-11-05T12:19:52.503Z,63.42
2022-11-05T12:22:31.172Z,63.32
2022-11-05T12:25:10.057Z,62.81
2022-11-05T12:28:26.360Z,63.48
2022-11-05T12:31:05.762Z,62.54
2022-11-05T12:33:40.504Z,61.99
2022-11-05T12:36:32.686Z,62.02
2022-11-05T12:39:31.747Z,61.93
2022-11-05T12:42:07.321Z,62.82
2022-11-05T12:44:58.961Z,61.58
2022-11-05T12:47:25.539Z,60.71
2022-11-05T12:50:10.393Z,60.27
2022-11-05T12:53:14.782Z,58.27
2022-11-05T12:55:48.747Z,58.01
2022-11-05T12:58:22.289Z,57.27
2022-11-05T13:00:57.590Z,55.72
2022-11-05T13:03:46.161Z,54.67
2022-11-05T13:06:30.225Z,54.87
2022-11-05T13:09:09.054Z,55.45
2022-11-05T13:11:41.928Z,54.84
2022-11-05T13:14:17.504Z,54.14
2022-11-05T13:16:56.421Z,53.25
2022-11-05T13:19:35.622Z,51.42
2022-11-05T13:22:21.969Z,51.38
2022-11-05T13:24:51.140Z,50.62
2022-11-05T13:27:52.542Z,51.79
2022-11-05T13:30:25.637Z,52.33
2022-11-05T13:32:55.246Z,51.91
2022-11-05T13:35:41.629Z,52.41
2022-11-05T13:38:37.325Z,52.22
2022-11-05T13:41:35.103Z,52.82
2022-11-05T13:44:19.802Z,53.76
2022-11-05T13:47:08.153Z,54.34
2022-11-05T13:49:34.719Z,55.02
2022-11-05T13:52:10.392Z,55.25
2022-11-05T13:54:37.009Z,56.53
2022-11-05T13:57:18.457Z,56.42
2022-11-05T14:00:03.366Z,56.58
2022-11-05T14:02:45.219Z,55.61
2022-11-05T14:05:32.244Z,56.19
2022-11-05T14:08:16.362Z,56.35
2022-11-05T14:10:58.857Z,56.68
2022-11-05T14:13:42.242Z,57.54
2022-11-05T14:16:17.913Z,58.20
2022-11-05T14:18:55.811Z,58.48
2022-11-05T14:21:25.533Z,59.52
2022-11-05T14:23:54.634Z,59.35
2022-11-05T14:26:23.442Z,59.44
2022-11-05T14:29:11.486Z,60.37
2022-11-05T14:32:07.688Z,61.06
2022-11-05T14:34:47.474Z,61.04
2022-11-05T14:37:22.388Z,60.10
2022-11-05T14:39:49.763Z,60.69
2022-11-05T14:42:22.886Z,60.17
2022-11-05T14:44:56.895Z,60.77
2022-11-05T14:47:27.769Z,60.83
2022-11-05T14:50:15.982Z,61.26
2022-11-05T14:52:52.080Z,60.72
2022-11-05T14:55:37.679Z,60.79
2022-11-05T14:58:25.529Z,61.37
2022-11-05T15:00:53.647Z,61.13
2022-11-05T15:03:31.770Z,61.88
2022-11-05T15:06:22.214Z,61.00
2022-11-05T15:08:58.818Z,61.56
2022-11-05T15:11:37.099Z,61.87
2022-11-05T15:14:16.435Z,62.49
2022-11-05T15:16:45.117Z,62.52
2022-11-05T15:19:21.509Z,61.94
2022-11-05T15:21:49.380Z,62.62
2022-11-05T15:24:17.944Z,62.42
2022-11-05T15:26:58.712Z,62.69
2022-11-05T15:29:28.297Z,63.44
2022-11-05T15:31:55.478Z,62.58
2022-11-05T15:34:24.615Z,63.65
2022-11-05T15:36:54.666Z,63.22
2022-11-05T15:39:31.896Z,63.27
2022-11-05T15:42:04.477Z,63.79
2022-11-05T15:44:38.007Z,63.94
2022-11-05T15:47:25.762Z,64.94
2022-11-05T15:50:03.482Z,64.81
2022-11-05T15:52:42.067Z,65.25
2022-11-05T15:55:14.301Z,65.63
2022-11-05T15:57:50.704Z,66.24
2022-11-05T16:00:26.859Z,65.69
2022-11-05T16:02:57.182Z,66.28
2022-11-05T16:05:26.715Z,66.11
2022-11-05T16:07:53.758Z,66.23
2022-11-05T16:10:24.219Z,66.39
2022-11-05T16:12:51.046Z,66.49
2022-11-05T16:15:24.174Z,66.44
2022-11-05T16:18:00.538Z,66.12
2022-11-05T16:20:33.709Z,66.30
2022-11-05T16:23:22.562Z,66.44
2022-11-05T16:25:50.297Z,66.71
2022-11-05T16:28:23.488Z,66.75
2022-11-05T16:31:02.092Z,66.75
2022-11-05T16:33:34.005Z,66.39
2022-11-05T16:36:00.842Z,66.65
2022-11-05T16:38:27.789Z,66.89
2022-11-05T16:40:54.625Z,67.66
2022-11-05T16:43:23.919Z,67.17
2022-11-05T16:45:54.127Z,67.52
2022-11-05T16:48:21.186Z,67.08
2022-11-05T16:50:47.842Z,67.64
2022-11-05T16:53:15.562Z,67.39
2022-11-05T16:55:45.117Z,67.49
2022-11-05T16:58:21.838Z,67.03
2022-11-05T17:00:51.031Z,67.52
2022-11-05T17:03:18.401Z,67.51
2022-11-05T17:05:45.358Z,67.42
2022-11-05T17:08:12.253Z,67.73
2022-11-05T17:10:39.204Z,68.29
2022-11-05T17:13:05.869Z,67.95
2022-11-05T17:15:35.607Z,68.21
2022-11-05T17:18:04.023Z,68.51
2022-11-05T17:20:57.257Z,68.52
2022-11-05T17:23:26.661Z,68.50
2022-11-05T17:25:56.391Z,68.82
2022-11-05T17:28:23.729Z,68.65
2022-11-05T17:30:52.888Z,68.83
2022-11-05T17:33:23.157Z,68.71
2022-11-05T17:35:51.243Z,68.88
2022-11-05T17:38:18.543Z,68.78
2022-11-05T17:40:45.439Z,68.64
2022-11-05T17:43:12.601Z,68.70
2022-11-05T17:45:44.299Z,68.71
2022-11-05T17:48:11.655Z,68.85
2022-11-05T17:50:51.058Z,68.50
2022-11-05T17:53:18.995Z,68.42
2022-11-05T17:55:47.330Z,68.45
2022-11-05T17:58:14.438Z,68.53
2022-11-05T18:00:42.366Z,68.56
2022-11-05T18:03:10.817Z,68.57
2022-11-05T18:05:38.202Z,68.77
2022-11-05T18:08:04.982Z,68.88
2022-11-05T18:10:32.077Z,68.72
2022-11-05T18:12:58.869Z,69.07
2022-11-05T18:15:25.511Z,68.96
2022-11-05T18:17:52.131Z,68.98
2022-11-05T18:20:19.571Z,68.96
2022-11-05T18:22:49.061Z,68.93
2022-11-05T18:25:16.602Z,68.89
2022-11-05T18:27:43.726Z,69.13
2022-11-05T18:30:13.889Z,68.96
2022-11-05T18:32:40.756Z,68.66
2022-11-05T18:35:07.826Z,68.63
2022-11-05T18:37:34.669Z,68.64
2022-11-05T18:40:01.331Z,68.53
2022-11-05T18:42:28.924Z,68.38
2022-11-05T18:44:55.546Z,68.28
2022-11-05T18:47:22.307Z,68.55
2022-11-05T18:49:48.918Z,68.75
2022-11-05T18:52:15.873Z,68.55
2022-11-05T18:54:42.630Z,68.39
2022-11-05T18:57:09.299Z,68.44
2022-11-05T18:59:38.616Z,68.24
2022-11-05T19:02:08.434Z,68.33
2022-11-05T19:04:36.303Z,68.52
2022-11-05T19:07:05.500Z,68.28
2022-11-05T19:09:38.128Z,68.44
2022-11-05T19:12:06.324Z,68.09
2022-11-05T19:14:33.528Z,68.57
2022-11-05T19:17:00.963Z,68.02
2022-11-05T19:19:28.883Z,67.64
2022-11-05T19:21:55.869Z,67.83
2022-11-05T19:24:22.585Z,67.69
2022-11-05T19:26:49.245Z,67.65
2022-11-05T19:29:16.345Z,67.91
2022-11-05T19:31:43.176Z,67.88
2022-11-05T19:34:09.958Z,67.90
2022-11-05T19:36:36.670Z,68.05
2022-11-05T19:39:08.704Z,68.09
2022-11-05T19:41:35.524Z,68.20
2022-11-05T19:44:02.379Z,68.17
2022-11-05T19:46:30.578Z,68.23
2022-11-05T19:48:59.001Z,68.63
2022-11-05T19:51:28.143Z,68.02
2022-11-05T19:53:55.781Z,67.92
2022-11-05T19:56:28.083Z,68.14
2022-11-05T19:58:54.792Z,68.43
2022-11-05T20:01:23.872Z,68.26
2022-11-05T20:03:51.285Z,68.35
2022-11-05T20:06:31.897Z,68.18
2022-11-05T20:11:48.685Z,68.05
2022-11-05T20:14:15.542Z,68.14
2022-11-05T20:16:43.539Z,68.17
2022-11-05T20:19:14.188Z,67.89
2022-11-05T20:21:41.243Z,68.16
2022-11-05T20:24:08.500Z,67.81
2022-11-05T20:26:35.108Z,67.95
2022-11-05T20:29:01.966Z,67.85
2022-11-05T20:31:29.097Z,67.78
2022-11-05T20:33:56.293Z,67.62
2022-11-05T20:36:24.919Z,68.08
2022-11-05T20:38:58.004Z,68.26
2022-11-05T20:41:26.066Z,68.14
2022-11-05T20:43:53.406Z,68.19
2022-11-05T20:46:21.958Z,68.45
2022-11-05T20:48:48.734Z,68.47
2022-11-05T20:51:18.174Z,68.47
2022-11-05T20:53:46.225Z,68.66
2022-11-05T20:56:34.620Z,68.90
2022-11-05T20:59:02.215Z,68.76
2022-11-05T21:01:31.907Z,68.97
2022-11-05T21:03:59.719Z,68.88
2022-11-05T21:06:26.580Z,68.99
2022-11-05T21:08:53.755Z,69.20
2022-11-05T21:11:20.851Z,69.06
2022-11-05T21:13:47.796Z,69.27
2022-11-05T21:16:18.174Z,69.40
2022-11-05T21:18:46.453Z,69.58
2022-11-05T21:21:19.921Z,69.51
2022-11-05T21:23:47.037Z,69.18
2022-11-05T21:26:15.304Z,69.31
2022-11-05T21:28:42.390Z,69.32
2022-11-05T21:31:09.988Z,69.06
2022-11-05T21:33:37.356Z,69.03
2022-11-05T21:36:10.253Z,69.10
2022-11-05T21:38:37.351Z,68.72
2022-11-05T21:41:04.802Z,68.87
2022-11-05T21:43:31.501Z,68.69
2022-11-05T21:46:02.171Z,68.85
2022-11-05T21:48:29.190Z,68.86
2022-11-05T21:51:14.785Z,68.76
2022-11-05T21:54:00.126Z,68.70
2022-11-05T21:56:46.553Z,68.69
2022-11-05T21:59:35.773Z,68.89
2022-11-05T22:02:03.220Z,69.01
2022-11-05T22:04:35.438Z,69.02
2022-11-05T22:07:02.473Z,69.32
2022-11-05T22:09:30.030Z,69.00
2022-11-05T22:11:57.155Z,69.15
2022-11-05T22:14:24.589Z,68.78
2022-11-05T22:16:51.333Z,69.25
2022-11-05T22:19:18.553Z,69.03
2022-11-05T22:21:45.552Z,69.13
2022-11-05T22:24:12.279Z,68.75
2022-11-05T22:26:41.323Z,69.50
2022-11-05T22:29:08.342Z,69.10
2022-11-05T22:31:36.693Z,69.02
2022-11-05T22:34:06.069Z,69.20
2022-11-05T22:36:34.219Z,69.01
2022-11-05T22:39:01.357Z,69.36
2022-11-05T22:41:28.905Z,69.12
2022-11-05T22:43:55.759Z,69.15
2022-11-05T22:46:25.096Z,69.28
2022-11-05T22:48:52.399Z,69.58
2022-11-05T22:51:27.514Z,69.62
2022-11-05T22:53:57.962Z,69.52
2022-11-05T22:56:28.562Z,69.54
2022-11-05T22:58:55.695Z,69.21
2022-11-05T23:01:23.308Z,69.62
2022-11-05T23:03:52.428Z,69.75
2022-11-05T23:06:39.224Z,69.70
2022-11-05T23:09:31.184Z,69.40
2022-11-05T23:11:58.340Z,69.76
2022-11-05T23:14:25.015Z,69.38
2022-11-05T23:17:10.309Z,70.43
2022-11-05T23:19:55.733Z,70.48
2022-11-05T23:22:45.261Z,70.00
2022-11-05T23:25:17.982Z,70.45
2022-11-05T23:27:46.385Z,70.31
2022-11-05T23:30:17.346Z,70.04
2022-11-05T23:32:44.226Z,70.65
2022-11-05T23:35:11.377Z,70.35
2022-11-05T23:37:56.997Z,70.27
2022-11-05T23:40:29.140Z,70.63
2022-11-05T23:43:15.285Z,70.48
2022-11-05T23:45:59.189Z,70.54
2022-11-05T23:48:37.506Z,70.73
2022-11-05T23:51:05.400Z,70.39
2022-11-05T23:53:34.332Z,70.34
2022-11-05T23:56:04.433Z,70.61
2022-11-05T23:58:31.437Z,70.86
